createdAt,value
2022-10-28T00:00:27.048Z,17.30
2022-10-28T00:04:35.779Z,17.30
2022-10-28T00:08:44.817Z,17.30
2022-10-28T00:12:53.389Z,17.40
2022-10-28T00:17:01.972Z,17.30
2022-10-28T00:21:16.746Z,17.40
2022-10-28T00:25:25.309Z,17.40
2022-10-28T00:29:33.889Z,17.40
2022-10-28T00:33:42.651Z,17.40
2022-10-28T00:37:54.332Z,17.40
2022-10-28T00:42:22.725Z,17.40
2022-10-28T00:46:46.679Z,17.40
2022-10-28T00:50:55.889Z,17.30
2022-10-28T00:55:05.437Z,17.30
2022-10-28T00:59:26.115Z,17.30
2022-10-28T01:03:34.866Z,17.30
2022-10-28T01:07:44.740Z,17.30
2022-10-28T01:12:04.978Z,17.30
2022-10-28T01:16:22.642Z,17.30
2022-10-28T01:20:42.488Z,17.30
2022-10-28T01:25:15.571Z,17.30
2022-10-28T01:29:49.870Z,17.30
2022-10-28T01:34:10.650Z,17.30
2022-10-28T01:38:28.553Z,17.30
2022-10-28T01:42:49.099Z,17.30
2022-10-28T01:47:03.402Z,17.30
2022-10-28T01:51:35.784Z,17.30
2022-10-28T01:55:49.920Z,17.20
2022-10-28T01:59:59.699Z,17.10
2022-10-28T02:04:08.260Z,17.00
2022-10-28T02:08:22.564Z,17.00
2022-10-28T02:12:37.654Z,16.90
2022-10-28T02:17:04.485Z,16.90
2022-10-28T02:21:21.960Z,16.80
2022-10-28T02:25:42.672Z,16.80
2022-10-28T02:30:02.874Z,16.70
2022-10-28T02:34:14.572Z,16.70
2022-10-28T02:38:29.090Z,16.60
2022-10-28T02:42:40.841Z,16.60
2022-10-28T02:46:51.182Z,16.60
2022-10-28T02:51:08.894Z,16.60
2022-10-28T02:55:19.164Z,16.60
2022-10-28T02:59:29.439Z,16.60
2022-10-28T03:03:38.025Z,16.60
2022-10-28T03:07:46.643Z,16.60
2022-10-28T03:11:55.171Z,16.50
2022-10-28T03:16:03.796Z,16.50
2022-10-28T03:20:12.721Z,16.50
2022-10-28T03:24:21.363Z,16.40
2022-10-28T03:28:29.888Z,16.40
2022-10-28T03:32:38.451Z,16.40
2022-10-28T03:36:47.042Z,16.40
2022-10-28T03:40:55.672Z,16.40
2022-10-28T03:45:04.440Z,16.40
2022-10-28T03:49:13.035Z,16.30
2022-10-28T03:53:24.315Z,16.20
2022-10-28T03:57:33.263Z,16.20
2022-10-28T04:01:41.898Z,16.20
2022-10-28T04:05:51.341Z,16.20
2022-10-28T04:09:59.964Z,16.20
2022-10-28T04:14:08.592Z,16.20
2022-10-28T04:18:18.246Z,16.20
2022-10-28T04:22:26.699Z,16.20
2022-10-28T04:26:35.298Z,16.20
2022-10-28T04:30:43.928Z,16.20
2022-10-28T04:34:52.456Z,16.20
2022-10-28T04:39:00.956Z,16.20
2022-10-28T04:43:11.347Z,16.10
2022-10-28T04:47:20.198Z,16.10
2022-10-28T04:51:28.757Z,16.10
2022-10-28T04:55:37.327Z,16.10
2022-10-28T04:59:46.889Z,16.00
2022-10-28T05:03:55.494Z,16.00
2022-10-28T05:08:04.057Z,16.00
2022-10-28T05:12:12.624Z,16.00
2022-10-28T05:16:21.711Z,15.90
2022-10-28T05:20:30.338Z,16.00
2022-10-28T05:24:38.982Z,16.00
2022-10-28T05:28:51.724Z,16.00
2022-10-28T05:33:02.290Z,16.00
2022-10-28T05:37:11.851Z,16.00
2022-10-28T05:41:23.351Z,16.10
2022-10-28T05:45:31.954Z,16.00
2022-10-28T05:49:40.512Z,16.00
2022-10-28T05:53:51.206Z,15.90
2022-10-28T05:57:59.887Z,15.90
2022-10-28T06:02:16.509Z,15.90
2022-10-28T06:06:25.146Z,15.90
2022-10-28T06:10:34.087Z,15.90
2022-10-28T06:15:00.442Z,15.90
2022-10-28T06:19:08.999Z,15.80
2022-10-28T06:23:17.765Z,15.80
2022-10-28T06:27:26.342Z,15.80
2022-10-28T06:31:46.788Z,15.90
2022-10-28T06:35:59.509Z,15.80
2022-10-28T06:40:09.075Z,15.80
2022-10-28T06:44:17.664Z,15.80
2022-10-28T06:48:27.809Z,15.80
2022-10-28T06:52:36.389Z,15.90
2022-10-28T06:56:45.501Z,15.90
2022-10-28T07:00:54.321Z,16.00
2022-10-28T07:05:02.957Z,16.00
2022-10-28T07:09:15.886Z,16.10
2022-10-28T07:13:26.775Z,16.20
2022-10-28T07:17:35.403Z,16.20
2022-10-28T07:21:43.941Z,16.20
2022-10-28T07:25:57.178Z,16.20
2022-10-28T07:30:06.947Z,16.20
2022-10-28T07:34:15.840Z,16.30
2022-10-28T07:38:24.808Z,16.30
2022-10-28T07:42:35.126Z,16.30
2022-10-28T07:47:03.462Z,16.40
2022-10-28T07:51:14.735Z,16.50
2022-10-28T07:55:23.288Z,16.50
2022-10-28T07:59:32.006Z,16.50
2022-10-28T08:03:41.448Z,16.60
2022-10-28T08:07:50.108Z,16.60
2022-10-28T08:11:59.403Z,16.70
2022-10-28T08:16:09.054Z,16.80
2022-10-28T08:24:43.332Z,16.90
2022-10-28T08:28:51.926Z,17.00
2022-10-28T08:33:00.553Z,17.00
2022-10-28T08:37:09.141Z,17.10
2022-10-28T08:41:41.855Z,17.10
2022-10-28T08:45:53.508Z,17.20
2022-10-28T08:50:05.115Z,17.30
2022-10-28T08:54:29.506Z,17.50
2022-10-28T08:59:00.225Z,17.60
2022-10-28T09:03:29.820Z,17.80
2022-10-28T09:07:38.572Z,18.00
2022-10-28T09:12:10.245Z,18.10
2022-10-28T09:16:30.610Z,18.20
2022-10-28T09:20:57.193Z,18.40
2022-10-28T09:25:11.766Z,18.40
2022-10-28T09:29:56.631Z,18.60
2022-10-28T09:34:26.263Z,18.70
2022-10-28T09:38:38.911Z,18.70
2022-10-28T09:43:06.700Z,18.70
2022-10-28T09:47:24.418Z,18.70
2022-10-28T09:51:36.117Z,18.80
2022-10-28T09:55:45.240Z,18.90
2022-10-28T10:00:13.781Z,19.10
2022-10-28T10:04:25.140Z,19.40
2022-10-28T10:08:36.428Z,19.50
2022-10-28T10:12:47.436Z,19.60
2022-10-28T10:17:01.748Z,19.70
2022-10-28T10:21:10.811Z,19.80
2022-10-28T10:25:22.422Z,19.80
2022-10-28T10:29:32.371Z,19.90
2022-10-28T10:33:43.429Z,19.90
2022-10-28T10:37:54.236Z,19.90
2022-10-28T10:42:03.395Z,20.00
2022-10-28T10:46:32.386Z,20.10
2022-10-28T10:50:43.108Z,20.20
2022-10-28T10:55:06.805Z,20.20
2022-10-28T10:59:30.117Z,20.20
2022-10-28T11:03:50.957Z,20.30
2022-10-28T11:08:03.253Z,20.40
2022-10-28T11:12:35.050Z,20.40
2022-10-28T11:16:58.200Z,20.50
2022-10-28T11:21:33.368Z,20.50
2022-10-28T11:25:50.681Z,20.60
2022-10-28T11:30:01.457Z,20.60
2022-10-28T11:34:32.914Z,20.60
2022-10-28T11:38:45.815Z,20.60
2022-10-28T11:43:14.241Z,20.70
2022-10-28T11:47:37.928Z,20.80
2022-10-28T11:52:07.369Z,20.80
2022-10-28T11:56:33.987Z,20.90
2022-10-28T12:00:45.889Z,21.00
2022-10-28T12:05:18.182Z,21.10
2022-10-28T12:09:40.625Z,21.20
2022-10-28T12:14:04.067Z,21.30
2022-10-28T12:18:16.417Z,21.40
2022-10-28T12:22:30.710Z,21.40
2022-10-28T12:26:51.329Z,21.40
2022-10-28T12:31:01.534Z,21.50
2022-10-28T12:35:28.446Z,21.60
2022-10-28T12:39:40.046Z,21.60
2022-10-28T12:43:51.771Z,21.60
2022-10-28T12:48:09.218Z,21.60
2022-10-28T12:52:33.189Z,21.60
2022-10-28T12:56:47.126Z,21.60
2022-10-28T13:00:58.669Z,21.60
2022-10-28T13:05:08.274Z,21.60
2022-10-28T13:09:25.092Z,21.70
2022-10-28T13:14:04.155Z,21.70
2022-10-28T13:18:36.406Z,21.70
2022-10-28T13:22:57.779Z,21.70
2022-10-28T13:27:09.939Z,21.70
2022-10-28T13:31:20.321Z,21.80
2022-10-28T13:35:30.843Z,21.80
2022-10-28T13:39:42.455Z,22.00
2022-10-28T13:43:54.371Z,22.00
2022-10-28T13:48:32.796Z,22.10
2022-10-28T13:52:46.398Z,22.10
2022-10-28T13:56:57.966Z,22.10
2022-10-28T14:01:38.769Z,22.10
2022-10-28T14:06:08.408Z,22.20
2022-10-28T14:10:30.881Z,22.10
2022-10-28T14:14:40.036Z,22.10
2022-10-28T14:19:06.603Z,21.90
2022-10-28T14:23:24.748Z,21.90
2022-10-28T14:27:43.414Z,21.70
2022-10-28T14:31:51.956Z,21.60
2022-10-28T14:36:21.854Z,21.60
2022-10-28T14:40:52.908Z,21.50
2022-10-28T14:45:13.824Z,21.40
2022-10-28T14:49:28.715Z,21.40
2022-10-28T14:53:39.068Z,21.40
2022-10-28T14:57:47.699Z,21.40
2022-10-28T15:02:02.585Z,21.40
2022-10-28T15:06:37.582Z,21.40
2022-10-28T15:10:49.152Z,21.30
2022-10-28T15:14:58.769Z,21.20
2022-10-28T15:19:08.185Z,21.10
2022-10-28T15:23:24.258Z,21.10
2022-10-28T15:27:38.912Z,21.00
2022-10-28T15:32:16.397Z,20.90
2022-10-28T15:36:26.672Z,20.90
2022-10-28T15:40:37.807Z,20.70
2022-10-28T15:44:46.391Z,20.60
2022-10-28T15:48:57.927Z,20.60
2022-10-28T15:53:24.726Z,20.50
2022-10-28T15:57:36.301Z,20.50
2022-10-28T16:01:45.079Z,20.50
2022-10-28T16:05:56.173Z,20.40
2022-10-28T16:10:24.080Z,20.30
2022-10-28T16:14:38.130Z,20.30
2022-10-28T16:18:49.629Z,20.20
2022-10-28T16:23:00.251Z,20.10
2022-10-28T16:27:26.719Z,20.00
2022-10-28T16:31:35.838Z,19.90
2022-10-28T16:35:44.671Z,19.80
2022-10-28T16:40:30.828Z,19.70
2022-10-28T16:44:24.559Z,19.60
2022-10-28T16:48:33.292Z,19.60
2022-10-28T16:52:41.925Z,19.50
2022-10-28T16:56:50.409Z,19.40
2022-10-28T17:01:00.611Z,19.30
2022-10-28T17:05:12.219Z,19.20
2022-10-28T17:09:20.839Z,19.10
2022-10-28T17:13:29.600Z,19.00
2022-10-28T17:17:38.198Z,18.90
2022-10-28T17:21:46.831Z,18.90
2022-10-28T17:26:00.576Z,18.80
2022-10-28T17:30:28.736Z,18.70
2022-10-28T17:34:37.597Z,18.70
2022-10-28T17:38:48.019Z,18.60
2022-10-28T17:43:16.460Z,18.50
2022-10-28T17:47:25.864Z,18.40
2022-10-28T17:51:34.795Z,18.30
2022-10-28T17:55:43.547Z,18.30
2022-10-28T17:59:52.204Z,18.20
2022-10-28T18:04:01.012Z,18.10
2022-10-28T18:08:09.591Z,18.00
2022-10-28T18:12:18.156Z,18.00
2022-10-28T18:16:30.895Z,17.90
2022-10-28T18:20:39.524Z,17.90
2022-10-28T18:25:08.328Z,17.80
2022-10-28T18:29:16.958Z,17.80
2022-10-28T18:33:45.453Z,17.80
2022-10-28T18:37:54.773Z,17.80
2022-10-28T18:42:23.288Z,17.70
2022-10-28T18:46:37.118Z,17.70
2022-10-28T18:50:49.201Z,17.70
2022-10-28T18:54:57.573Z,17.60
2022-10-28T18:59:06.441Z,17.60
2022-10-28T19:03:23.559Z,17.50
2022-10-28T19:07:33.176Z,17.50
2022-10-28T19:12:01.169Z,17.50
2022-10-28T19:16:10.617Z,17.40
2022-10-28T19:20:19.207Z,17.40
2022-10-28T19:24:29.924Z,17.30
2022-10-28T19:28:39.989Z,17.30
2022-10-28T19:32:48.523Z,17.40
2022-10-28T19:36:57.549Z,17.40
2022-10-28T19:41:12.496Z,17.40
2022-10-28T19:45:21.187Z,17.40
2022-10-28T19:49:35.484Z,17.40
2022-10-28T19:53:40.893Z,17.40
2022-10-28T19:57:51.990Z,17.40
2022-10-28T20:01:59.819Z,17.30
2022-10-28T20:06:11.396Z,17.30
2022-10-28T20:10:20.123Z,17.30
2022-10-28T20:14:29.213Z,17.30
2022-10-28T20:18:38.583Z,17.20
2022-10-28T20:22:47.210Z,17.30
2022-10-28T20:26:55.841Z,17.20
2022-10-28T20:31:09.914Z,17.20
2022-10-28T20:35:19.242Z,17.20
2022-10-28T20:39:28.032Z,17.10
2022-10-28T20:43:36.600Z,17.10
2022-10-28T20:47:45.167Z,17.00
2022-10-28T20:51:54.679Z,17.00
2022-10-28T20:56:03.613Z,16.90
2022-10-28T21:00:13.547Z,16.90
2022-10-28T21:04:22.202Z,16.80
2022-10-28T21:08:31.540Z,16.80
2022-10-28T21:12:40.280Z,16.80
2022-10-28T21:16:53.003Z,16.80
2022-10-28T21:21:01.970Z,16.80
2022-10-28T21:25:10.876Z,16.70
2022-10-28T21:29:21.755Z,16.60
2022-10-28T21:33:30.897Z,16.60
2022-10-28T21:37:39.525Z,16.50
2022-10-28T21:41:48.203Z,16.50
2022-10-28T21:45:57.094Z,16.50
2022-10-28T21:50:06.135Z,16.40
2022-10-28T21:54:16.909Z,16.40
2022-10-28T21:58:25.639Z,16.30
2022-10-28T22:02:34.398Z,16.30
2022-10-28T22:07:02.559Z,16.30
2022-10-28T22:11:19.286Z,16.30
2022-10-28T22:15:28.825Z,16.30
2022-10-28T22:19:37.366Z,16.30
2022-10-28T22:24:05.417Z,16.20
2022-10-28T22:28:14.066Z,16.20
2022-10-28T22:32:22.657Z,16.20
2022-10-28T22:36:31.243Z,16.20
2022-10-28T22:41:15.803Z,16.20
2022-10-28T22:45:24.362Z,16.20
2022-10-28T22:49:33.048Z,16.20
2022-10-28T22:53:42.347Z,16.10
2022-10-28T22:57:50.878Z,16.10
2022-10-28T23:01:59.541Z,16.10
2022-10-28T23:06:09.158Z,16.00
2022-10-28T23:10:17.781Z,15.90
2022-10-28T23:14:26.357Z,15.90
2022-10-28T23:18:34.962Z,15.90
2022-10-28T23:22:43.528Z,15.80
2022-10-28T23:26:52.124Z,15.80
2022-10-28T23:31:01.965Z,15.80
2022-10-28T23:35:10.732Z,15.70
2022-10-28T23:39:19.278Z,15.70
2022-10-28T23:43:29.178Z,15.70
2022-10-28T23:47:37.911Z,15.70
2022-10-28T23:51:46.575Z,15.70
2022-10-28T23:55:55.204Z,15.70
